sensor_id;sensor_type;location;lat;lon;timestamp;P1;durP1;ratioP1;P2;durP2;ratioP2
65799;SDS011;52544;48.116;11.660;2023-12-28T00:01:23;2.40;;;1.70;;
65799;SDS011;52544;48.116;11.660;2023-12-28T00:03:48;3.35;;;1.55;;
65799;SDS011;52544;48.116;11.660;2023-12-28T00:06:14;2.97;;;1.52;;
65799;SDS011;52544;48.116;11.660;2023-12-28T00:08:40;3.08;;;1.85;;
65799;SDS011;52544;48.116;11.660;2023-12-28T00:11:05;2.78;;;1.85;;
65799;SDS011;52544;48.116;11.660;2023-12-28T00:13:31;8.35;;;2.70;;
65799;SDS011;52544;48.116;11.660;2023-12-28T00:15:56;7.55;;;2.90;;
65799;SDS011;52544;48.116;11.660;2023-12-28T00:18:21;7.97;;;2.97;;
65799;SDS011;52544;48.116;11.660;2023-12-28T00:20:47;5.25;;;2.83;;
65799;SDS011;52544;48.116;11.660;2023-12-28T00:23:12;5.78;;;2.80;;
65799;SDS011;52544;48.116;11.660;2023-12-28T00:25:38;4.57;;;2.00;;
65799;SDS011;52544;48.116;11.660;2023-12-28T00:28:03;5.03;;;2.13;;
65799;SDS011;52544;48.116;11.660;2023-12-28T00:30:29;6.10;;;2.00;;
65799;SDS011;52544;48.116;11.660;2023-12-28T00:32:54;3.55;;;1.60;;
65799;SDS011;52544;48.116;11.660;2023-12-28T00:35:20;3.10;;;1.70;;
65799;SDS011;52544;48.116;11.660;2023-12-28T00:37:45;3.42;;;1.70;;
65799;SDS011;52544;48.116;11.660;2023-12-28T00:40:10;3.60;;;1.77;;
65799;SDS011;52544;48.116;11.660;2023-12-28T00:42:36;3.03;;;1.63;;
65799;SDS011;52544;48.116;11.660;2023-12-28T00:45:01;3.25;;;1.85;;
65799;SDS011;52544;48.116;11.660;2023-12-28T00:47:28;3.45;;;1.83;;
65799;SDS011;52544;48.116;11.660;2023-12-28T00:49:54;3.50;;;1.52;;
65799;SDS011;52544;48.116;11.660;2023-12-28T00:52:19;4.78;;;1.98;;
65799;SDS011;52544;48.116;11.660;2023-12-28T00:54:45;3.17;;;1.75;;
65799;SDS011;52544;48.116;11.660;2023-12-28T00:57:10;3.65;;;1.98;;
65799;SDS011;52544;48.116;11.660;2023-12-28T00:59:35;3.58;;;1.98;;
65799;SDS011;52544;48.116;11.660;2023-12-28T01:02:01;3.17;;;1.90;;
65799;SDS011;52544;48.116;11.660;2023-12-28T01:04:26;4.15;;;1.90;;
65799;SDS011;52544;48.116;11.660;2023-12-28T01:06:52;5.20;;;2.10;;
65799;SDS011;52544;48.116;11.660;2023-12-28T01:09:18;3.17;;;1.90;;
65799;SDS011;52544;48.116;11.660;2023-12-28T01:11:44;4.85;;;2.13;;
65799;SDS011;52544;48.116;11.660;2023-12-28T01:14:09;3.25;;;1.90;;
65799;SDS011;52544;48.116;11.660;2023-12-28T01:16:35;4.13;;;1.73;;
65799;SDS011;52544;48.116;11.660;2023-12-28T01:19:01;4.65;;;1.77;;
65799;SDS011;52544;48.116;11.660;2023-12-28T01:21:26;3.80;;;2.03;;
65799;SDS011;52544;48.116;11.660;2023-12-28T01:23:53;5.53;;;1.90;;
65799;SDS011;52544;48.116;11.660;2023-12-28T01:26:19;4.15;;;2.05;;
65799;SDS011;52544;48.116;11.660;2023-12-28T01:28:45;3.30;;;1.70;;
65799;SDS011;52544;48.116;11.660;2023-12-28T01:31:11;4.10;;;1.80;;
65799;SDS011;52544;48.116;11.660;2023-12-28T01:33:36;3.75;;;1.70;;
65799;SDS011;52544;48.116;11.660;2023-12-28T01:36:02;5.88;;;2.30;;
65799;SDS011;52544;48.116;11.660;2023-12-28T01:38:27;4.03;;;1.90;;
65799;SDS011;52544;48.116;11.660;2023-12-28T01:40:53;6.00;;;2.40;;
65799;SDS011;52544;48.116;11.660;2023-12-28T01:43:18;3.08;;;1.85;;
65799;SDS011;52544;48.116;11.660;2023-12-28T01:45:44;3.50;;;1.98;;
65799;SDS011;52544;48.116;11.660;2023-12-28T01:48:10;4.65;;;2.17;;
65799;SDS011;52544;48.116;11.660;2023-12-28T01:50:36;3.88;;;1.80;;
65799;SDS011;52544;48.116;11.660;2023-12-28T01:53:02;2.72;;;1.77;;
65799;SDS011;52544;48.116;11.660;2023-12-28T01:55:28;3.05;;;2.13;;
65799;SDS011;52544;48.116;11.660;2023-12-28T01:57:55;2.88;;;1.95;;
65799;SDS011;52544;48.116;11.660;2023-12-28T02:00:22;2.55;;;1.80;;
65799;SDS011;52544;48.116;11.660;2023-12-28T02:02:49;3.40;;;1.80;;
65799;SDS011;52544;48.116;11.660;2023-12-28T02:05:15;3.60;;;1.88;;
65799;SDS011;52544;48.116;11.660;2023-12-28T02:07:41;3.13;;;1.70;;
65799;SDS011;52544;48.116;11.660;2023-12-28T02:10:07;3.10;;;1.75;;
65799;SDS011;52544;48.116;11.660;2023-12-28T02:12:33;3.22;;;1.63;;
65799;SDS011;52544;48.116;11.660;2023-12-28T02:14:58;2.95;;;1.80;;
65799;SDS011;52544;48.116;11.660;2023-12-28T02:20:13;4.35;;;1.73;;
65799;SDS011;52544;48.116;11.660;2023-12-28T02:22:40;2.85;;;1.75;;
65799;SDS011;52544;48.116;11.660;2023-12-28T02:25:09;3.05;;;1.73;;
65799;SDS011;52544;48.116;11.660;2023-12-28T02:27:39;2.83;;;1.50;;
65799;SDS011;52544;48.116;11.660;2023-12-28T02:30:07;5.95;;;1.88;;
65799;SDS011;52544;48.116;11.660;2023-12-28T02:35:24;5.20;;;1.83;;
65799;SDS011;52544;48.116;11.660;2023-12-28T02:37:55;3.13;;;1.73;;
65799;SDS011;52544;48.116;11.660;2023-12-28T02:40:23;3.30;;;1.67;;
65799;SDS011;52544;48.116;11.660;2023-12-28T02:42:49;3.05;;;1.52;;
65799;SDS011;52544;48.116;11.660;2023-12-28T02:45:15;3.53;;;1.58;;
65799;SDS011;52544;48.116;11.660;2023-12-28T02:47:40;6.50;;;1.63;;
65799;SDS011;52544;48.116;11.660;2023-12-28T02:50:06;3.63;;;1.50;;
65799;SDS011;52544;48.116;11.660;2023-12-28T02:52:32;4.00;;;1.70;;
65799;SDS011;52544;48.116;11.660;2023-12-28T02:54:57;3.67;;;1.50;;
65799;SDS011;52544;48.116;11.660;2023-12-28T02:57:23;2.67;;;1.70;;
65799;SDS011;52544;48.116;11.660;2023-12-28T02:59:48;2.60;;;1.35;;
65799;SDS011;52544;48.116;11.660;2023-12-28T03:02:13;3.33;;;1.65;;
65799;SDS011;52544;48.116;11.660;2023-12-28T03:04:39;2.53;;;1.70;;
65799;SDS011;52544;48.116;11.660;2023-12-28T03:07:05;3.03;;;1.63;;
65799;SDS011;52544;48.116;11.660;2023-12-28T03:09:32;3.67;;;1.70;;
65799;SDS011;52544;48.116;11.660;2023-12-28T03:11:59;2.97;;;1.60;;
65799;SDS011;52544;48.116;11.660;2023-12-28T03:14:25;2.70;;;1.20;;
65799;SDS011;52544;48.116;11.660;2023-12-28T03:16:50;1.92;;;1.27;;
65799;SDS011;52544;48.116;11.660;2023-12-28T03:19:16;1.70;;;1.00;;
65799;SDS011;52544;48.116;11.660;2023-12-28T03:21:41;2.05;;;1.10;;
65799;SDS011;52544;48.116;11.660;2023-12-28T03:24:07;2.20;;;1.23;;
65799;SDS011;52544;48.116;11.660;2023-12-28T03:26:33;3.53;;;1.08;;
65799;SDS011;52544;48.116;11.660;2023-12-28T03:29:03;1.92;;;1.13;;
65799;SDS011;52544;48.116;11.660;2023-12-28T03:31:30;1.45;;;0.88;;
65799;SDS011;52544;48.116;11.660;2023-12-28T03:33:55;1.48;;;0.90;;
65799;SDS011;52544;48.116;11.660;2023-12-28T03:36:21;1.80;;;0.93;;
65799;SDS011;52544;48.116;11.660;2023-12-28T03:38:48;2.15;;;1.08;;
65799;SDS011;52544;48.116;11.660;2023-12-28T03:41:17;1.65;;;1.10;;
65799;SDS011;52544;48.116;11.660;2023-12-28T03:43:43;1.33;;;1.00;;
65799;SDS011;52544;48.116;11.660;2023-12-28T03:46:09;1.90;;;0.98;;
65799;SDS011;52544;48.116;11.660;2023-12-28T03:48:35;1.75;;;0.90;;
65799;SDS011;52544;48.116;11.660;2023-12-28T03:51:01;1.42;;;0.85;;
65799;SDS011;52544;48.116;11.660;2023-12-28T03:53:26;1.38;;;0.75;;
65799;SDS011;52544;48.116;11.660;2023-12-28T03:55:52;0.98;;;0.70;;
65799;SDS011;52544;48.116;11.660;2023-12-28T03:58:17;1.27;;;0.80;;
65799;SDS011;52544;48.116;11.660;2023-12-28T04:00:42;2.40;;;0.70;;
65799;SDS011;52544;48.116;11.660;2023-12-28T04:03:08;1.58;;;0.80;;
65799;SDS011;52544;48.116;11.660;2023-12-28T04:05:33;0.98;;;0.80;;
65799;SDS011;52544;48.116;11.660;2023-12-28T04:07:59;1.00;;;0.90;;
65799;SDS011;52544;48.116;11.660;2023-12-28T04:10:29;1.63;;;0.75;;
65799;SDS011;52544;48.116;11.660;2023-12-28T04:12:57;11.52;;;4.75;;
65799;SDS011;52544;48.116;11.660;2023-12-28T04:15:23;4.78;;;2.63;;
65799;SDS011;52544;48.116;11.660;2023-12-28T04:17:49;1.90;;;1.10;;
65799;SDS011;52544;48.116;11.660;2023-12-28T04:20:14;1.48;;;0.85;;
65799;SDS011;52544;48.116;11.660;2023-12-28T04:22:40;1.23;;;0.82;;
65799;SDS011;52544;48.116;11.660;2023-12-28T04:25:06;1.30;;;0.70;;
65799;SDS011;52544;48.116;11.660;2023-12-28T04:27:31;2.65;;;0.85;;
65799;SDS011;52544;48.116;11.660;2023-12-28T04:29:57;1.20;;;0.88;;
65799;SDS011;52544;48.116;11.660;2023-12-28T04:32:22;1.25;;;0.95;;
65799;SDS011;52544;48.116;11.660;2023-12-28T04:34:49;2.53;;;0.80;;
65799;SDS011;52544;48.116;11.660;2023-12-28T04:37:14;1.45;;;1.02;;
65799;SDS011;52544;48.116;11.660;2023-12-28T04:39:40;1.00;;;0.70;;
65799;SDS011;52544;48.116;11.660;2023-12-28T04:42:05;1.35;;;0.60;;
65799;SDS011;52544;48.116;11.660;2023-12-28T04:44:31;1.83;;;0.85;;
65799;SDS011;52544;48.116;11.660;2023-12-28T04:46:56;1.38;;;0.70;;
65799;SDS011;52544;48.116;11.660;2023-12-28T04:49:21;1.35;;;0.70;;
65799;SDS011;52544;48.116;11.660;2023-12-28T04:51:47;1.63;;;0.90;;
65799;SDS011;52544;48.116;11.660;2023-12-28T04:54:12;1.25;;;0.90;;
65799;SDS011;52544;48.116;11.660;2023-12-28T04:56:38;2.38;;;0.75;;
65799;SDS011;52544;48.116;11.660;2023-12-28T04:59:03;1.63;;;0.80;;
65799;SDS011;52544;48.116;11.660;2023-12-28T05:01:28;1.58;;;0.75;;
65799;SDS011;52544;48.116;11.660;2023-12-28T05:03:56;1.00;;;0.70;;
65799;SDS011;52544;48.116;11.660;2023-12-28T05:06:22;3.30;;;0.80;;
65799;SDS011;52544;48.116;11.660;2023-12-28T05:08:47;1.20;;;0.70;;
65799;SDS011;52544;48.116;11.660;2023-12-28T05:11:13;2.55;;;0.80;;
65799;SDS011;52544;48.116;11.660;2023-12-28T05:13:38;0.85;;;0.70;;
65799;SDS011;52544;48.116;11.660;2023-12-28T05:16:03;0.93;;;0.73;;
65799;SDS011;52544;48.116;11.660;2023-12-28T05:18:29;1.13;;;0.85;;
65799;SDS011;52544;48.116;11.660;2023-12-28T05:20:54;0.65;;;0.60;;
65799;SDS011;52544;48.116;11.660;2023-12-28T05:23:20;0.88;;;0.60;;
65799;SDS011;52544;48.116;11.660;2023-12-28T05:25:45;1.17;;;0.63;;
65799;SDS011;52544;48.116;11.660;2023-12-28T05:28:11;0.93;;;0.60;;
65799;SDS011;52544;48.116;11.660;2023-12-28T05:30:37;2.15;;;0.93;;
65799;SDS011;52544;48.116;11.660;2023-12-28T05:33:02;1.25;;;0.88;;
65799;SDS011;52544;48.116;11.660;2023-12-28T05:35:28;2.53;;;1.20;;
65799;SDS011;52544;48.116;11.660;2023-12-28T05:37:54;2.10;;;1.17;;
65799;SDS011;52544;48.116;11.660;2023-12-28T05:40:19;2.47;;;1.30;;
65799;SDS011;52544;48.116;11.660;2023-12-28T05:42:44;3.17;;;1.50;;
65799;SDS011;52544;48.116;11.660;2023-12-28T05:45:10;2.38;;;1.17;;
65799;SDS011;52544;48.116;11.660;2023-12-28T05:47:35;2.45;;;1.33;;
65799;SDS011;52544;48.116;11.660;2023-12-28T05:50:01;1.88;;;1.15;;
65799;SDS011;52544;48.116;11.660;2023-12-28T05:52:28;2.50;;;1.35;;
65799;SDS011;52544;48.116;11.660;2023-12-28T05:54:54;5.15;;;1.20;;
65799;SDS011;52544;48.116;11.660;2023-12-28T05:57:21;2.13;;;1.13;;
65799;SDS011;52544;48.116;11.660;2023-12-28T05:59:47;2.80;;;1.30;;
65799;SDS011;52544;48.116;11.660;2023-12-28T06:02:12;1.35;;;1.00;;
65799;SDS011;52544;48.116;11.660;2023-12-28T06:04:37;1.35;;;0.80;;
65799;SDS011;52544;48.116;11.660;2023-12-28T06:07:03;1.10;;;0.90;;
65799;SDS011;52544;48.116;11.660;2023-12-28T06:09:30;1.98;;;0.80;;
65799;SDS011;52544;48.116;11.660;2023-12-28T06:11:55;2.92;;;0.82;;
65799;SDS011;52544;48.116;11.660;2023-12-28T06:14:21;1.95;;;0.80;;
65799;SDS011;52544;48.116;11.660;2023-12-28T06:16:46;1.27;;;1.10;;
65799;SDS011;52544;48.116;11.660;2023-12-28T06:19:12;1.65;;;0.75;;
65799;SDS011;52544;48.116;11.660;2023-12-28T06:21:37;0.93;;;0.65;;
65799;SDS011;52544;48.116;11.660;2023-12-28T06:24:03;1.17;;;0.90;;
65799;SDS011;52544;48.116;11.660;2023-12-28T06:26:29;1.92;;;0.93;;
65799;SDS011;52544;48.116;11.660;2023-12-28T06:28:54;2.95;;;1.30;;
65799;SDS011;52544;48.116;11.660;2023-12-28T06:31:19;3.35;;;1.10;;
65799;SDS011;52544;48.116;11.660;2023-12-28T06:33:45;1.83;;;1.10;;
65799;SDS011;52544;48.116;11.660;2023-12-28T06:36:11;1.33;;;0.80;;
65799;SDS011;52544;48.116;11.660;2023-12-28T06:38:37;2.65;;;1.48;;
65799;SDS011;52544;48.116;11.660;2023-12-28T06:41:09;1.40;;;1.10;;
65799;SDS011;52544;48.116;11.660;2023-12-28T06:43:36;2.22;;;0.93;;
65799;SDS011;52544;48.116;11.660;2023-12-28T06:46:01;1.48;;;0.90;;
65799;SDS011;52544;48.116;11.660;2023-12-28T06:48:26;1.13;;;0.90;;
65799;SDS011;52544;48.116;11.660;2023-12-28T06:50:52;2.38;;;0.98;;
65799;SDS011;52544;48.116;11.660;2023-12-28T06:53:17;2.28;;;1.15;;
65799;SDS011;52544;48.116;11.660;2023-12-28T06:55:43;1.58;;;0.95;;
65799;SDS011;52544;48.116;11.660;2023-12-28T06:58:08;7.93;;;1.23;;
65799;SDS011;52544;48.116;11.660;2023-12-28T07:00:33;1.23;;;0.80;;
65799;SDS011;52544;48.116;11.660;2023-12-28T07:02:59;2.80;;;1.15;;
65799;SDS011;52544;48.116;11.660;2023-12-28T07:05:25;1.73;;;0.90;;
65799;SDS011;52544;48.116;11.660;2023-12-28T07:07:50;1.15;;;0.95;;
65799;SDS011;52544;48.116;11.660;2023-12-28T07:10:15;4.22;;;0.90;;
65799;SDS011;52544;48.116;11.660;2023-12-28T07:12:41;1.13;;;0.93;;
65799;SDS011;52544;48.116;11.660;2023-12-28T07:15:07;1.83;;;1.02;;
65799;SDS011;52544;48.116;11.660;2023-12-28T07:17:34;1.42;;;0.93;;
65799;SDS011;52544;48.116;11.660;2023-12-28T07:20:00;1.33;;;1.00;;
65799;SDS011;52544;48.116;11.660;2023-12-28T07:22:25;1.38;;;1.00;;
65799;SDS011;52544;48.116;11.660;2023-12-28T07:24:51;2.70;;;0.95;;
65799;SDS011;52544;48.116;11.660;2023-12-28T07:27:16;4.35;;;0.80;;
65799;SDS011;52544;48.116;11.660;2023-12-28T07:29:42;2.92;;;1.15;;
65799;SDS011;52544;48.116;11.660;2023-12-28T07:32:07;1.30;;;0.80;;
65799;SDS011;52544;48.116;11.660;2023-12-28T07:34:34;0.88;;;0.80;;
65799;SDS011;52544;48.116;11.660;2023-12-28T07:37:00;1.98;;;1.40;;
65799;SDS011;52544;48.116;11.660;2023-12-28T07:39:25;2.20;;;1.00;;
65799;SDS011;52544;48.116;11.660;2023-12-28T07:41:50;1.42;;;0.90;;
65799;SDS011;52544;48.116;11.660;2023-12-28T07:44:16;1.70;;;0.82;;
65799;SDS011;52544;48.116;11.660;2023-12-28T07:46:42;0.90;;;0.60;;
65799;SDS011;52544;48.116;11.660;2023-12-28T07:49:07;2.22;;;0.80;;
65799;SDS011;52544;48.116;11.660;2023-12-28T07:51:33;1.63;;;0.93;;
65799;SDS011;52544;48.116;11.660;2023-12-28T07:53:58;1.35;;;0.80;;
65799;SDS011;52544;48.116;11.660;2023-12-28T07:56:23;1.25;;;0.82;;
65799;SDS011;52544;48.116;11.660;2023-12-28T07:58:49;2.53;;;1.17;;
65799;SDS011;52544;48.116;11.660;2023-12-28T08:01:14;1.63;;;1.02;;
65799;SDS011;52544;48.116;11.660;2023-12-28T08:03:40;1.02;;;0.80;;
65799;SDS011;52544;48.116;11.660;2023-12-28T08:06:05;1.58;;;1.00;;
65799;SDS011;52544;48.116;11.660;2023-12-28T08:08:31;1.40;;;1.00;;
65799;SDS011;52544;48.116;11.660;2023-12-28T08:10:56;1.08;;;0.90;;
65799;SDS011;52544;48.116;11.660;2023-12-28T08:13:22;3.15;;;1.20;;
65799;SDS011;52544;48.116;11.660;2023-12-28T08:15:47;2.15;;;1.10;;
65799;SDS011;52544;48.116;11.660;2023-12-28T08:18:13;2.10;;;1.20;;
65799;SDS011;52544;48.116;11.660;2023-12-28T08:20:38;2.28;;;1.20;;
65799;SDS011;52544;48.116;11.660;2023-12-28T08:23:03;2.15;;;1.00;;
65799;SDS011;52544;48.116;11.660;2023-12-28T08:25:29;1.30;;;1.00;;
65799;SDS011;52544;48.116;11.660;2023-12-28T08:27:54;2.42;;;1.23;;
65799;SDS011;52544;48.116;11.660;2023-12-28T08:30:20;1.77;;;1.10;;
65799;SDS011;52544;48.116;11.660;2023-12-28T08:32:46;4.07;;;1.00;;
65799;SDS011;52544;48.116;11.660;2023-12-28T08:35:12;6.50;;;1.27;;
65799;SDS011;52544;48.116;11.660;2023-12-28T08:37:37;1.50;;;1.13;;
65799;SDS011;52544;48.116;11.660;2023-12-28T08:40:02;1.83;;;1.20;;
65799;SDS011;52544;48.116;11.660;2023-12-28T08:42:29;0.95;;;0.85;;
65799;SDS011;52544;48.116;11.660;2023-12-28T08:44:54;1.60;;;1.05;;
65799;SDS011;52544;48.116;11.660;2023-12-28T08:47:20;2.58;;;1.00;;
65799;SDS011;52544;48.116;11.660;2023-12-28T08:49:45;4.32;;;1.00;;
65799;SDS011;52544;48.116;11.660;2023-12-28T08:52:10;1.73;;;1.10;;
65799;SDS011;52544;48.116;11.660;2023-12-28T08:54:36;1.35;;;0.95;;
65799;SDS011;52544;48.116;11.660;2023-12-28T08:57:01;1.52;;;1.00;;
65799;SDS011;52544;48.116;11.660;2023-12-28T08:59:27;2.15;;;1.23;;
65799;SDS011;52544;48.116;11.660;2023-12-28T09:01:53;1.45;;;0.98;;
65799;SDS011;52544;48.116;11.660;2023-12-28T09:04:19;1.23;;;0.90;;
65799;SDS011;52544;48.116;11.660;2023-12-28T09:06:45;1.63;;;1.05;;
65799;SDS011;52544;48.116;11.660;2023-12-28T09:09:10;3.03;;;1.10;;
65799;SDS011;52544;48.116;11.660;2023-12-28T09:11:36;1.58;;;1.30;;
65799;SDS011;52544;48.116;11.660;2023-12-28T09:14:01;2.40;;;1.20;;
65799;SDS011;52544;48.116;11.660;2023-12-28T09:16:27;1.77;;;0.90;;
65799;SDS011;52544;48.116;11.660;2023-12-28T09:18:53;1.92;;;1.05;;
65799;SDS011;52544;48.116;11.660;2023-12-28T09:21:18;4.82;;;1.52;;
65799;SDS011;52544;48.116;11.660;2023-12-28T09:23:44;2.88;;;1.33;;
65799;SDS011;52544;48.116;11.660;2023-12-28T09:26:09;3.67;;;1.10;;
65799;SDS011;52544;48.116;11.660;2023-12-28T09:28:35;2.08;;;1.30;;
65799;SDS011;52544;48.116;11.660;2023-12-28T09:31:01;2.55;;;1.30;;
65799;SDS011;52544;48.116;11.660;2023-12-28T09:33:27;4.13;;;1.25;;
65799;SDS011;52544;48.116;11.660;2023-12-28T09:35:53;1.30;;;0.98;;
65799;SDS011;52544;48.116;11.660;2023-12-28T09:38:21;1.55;;;1.00;;
65799;SDS011;52544;48.116;11.660;2023-12-28T09:40:47;1.92;;;1.10;;
65799;SDS011;52544;48.116;11.660;2023-12-28T09:43:23;1.42;;;1.17;;
65799;SDS011;52544;48.116;11.660;2023-12-28T09:45:54;2.88;;;0.90;;
65799;SDS011;52544;48.116;11.660;2023-12-28T09:48:20;1.02;;;0.90;;
65799;SDS011;52544;48.116;11.660;2023-12-28T09:50:53;1.27;;;0.73;;
65799;SDS011;52544;48.116;11.660;2023-12-28T09:53:22;0.93;;;0.70;;
65799;SDS011;52544;48.116;11.660;2023-12-28T09:55:48;2.58;;;0.90;;
65799;SDS011;52544;48.116;11.660;2023-12-28T09:58:15;1.00;;;0.80;;
65799;SDS011;52544;48.116;11.660;2023-12-28T10:00:45;2.47;;;1.17;;
65799;SDS011;52544;48.116;11.660;2023-12-28T10:03:13;1.33;;;0.85;;
65799;SDS011;52544;48.116;11.660;2023-12-28T10:05:42;0.95;;;0.80;;
65799;SDS011;52544;48.116;11.660;2023-12-28T10:08:12;1.90;;;1.00;;
65799;SDS011;52544;48.116;11.660;2023-12-28T10:10:38;1.65;;;0.90;;
65799;SDS011;52544;48.116;11.660;2023-12-28T10:13:05;2.15;;;0.85;;
65799;SDS011;52544;48.116;11.660;2023-12-28T10:15:32;1.38;;;0.85;;
65799;SDS011;52544;48.116;11.660;2023-12-28T10:17:57;3.10;;;1.10;;
65799;SDS011;52544;48.116;11.660;2023-12-28T10:20:25;1.48;;;0.85;;
65799;SDS011;52544;48.116;11.660;2023-12-28T10:22:54;5.32;;;1.00;;
65799;SDS011;52544;48.116;11.660;2023-12-28T10:25:19;2.75;;;1.20;;
65799;SDS011;52544;48.116;11.660;2023-12-28T10:27:45;2.97;;;0.82;;
65799;SDS011;52544;48.116;11.660;2023-12-28T10:30:11;0.73;;;0.73;;
65799;SDS011;52544;48.116;11.660;2023-12-28T10:32:40;0.82;;;0.70;;
65799;SDS011;52544;48.116;11.660;2023-12-28T10:35:06;1.13;;;0.80;;
65799;SDS011;52544;48.116;11.660;2023-12-28T10:37:32;1.60;;;0.88;;
65799;SDS011;52544;48.116;11.660;2023-12-28T10:40:00;2.85;;;0.82;;
65799;SDS011;52544;48.116;11.660;2023-12-28T10:42:32;3.53;;;0.80;;
65799;SDS011;52544;48.116;11.660;2023-12-28T10:45:04;1.63;;;0.90;;
65799;SDS011;52544;48.116;11.660;2023-12-28T10:47:33;2.95;;;1.00;;
65799;SDS011;52544;48.116;11.660;2023-12-28T10:50:03;1.10;;;1.00;;
65799;SDS011;52544;48.116;11.660;2023-12-28T10:52:30;1.50;;;0.93;;
65799;SDS011;52544;48.116;11.660;2023-12-28T10:57:58;2.53;;;0.90;;
65799;SDS011;52544;48.116;11.660;2023-12-28T11:00:30;1.58;;;0.88;;
65799;SDS011;52544;48.116;11.660;2023-12-28T11:03:01;5.75;;;1.02;;
65799;SDS011;52544;48.116;11.660;2023-12-28T11:05:28;1.42;;;1.00;;
65799;SDS011;52544;48.116;11.660;2023-12-28T11:07:55;1.38;;;0.88;;
65799;SDS011;52544;48.116;11.660;2023-12-28T11:10:23;2.50;;;1.05;;
65799;SDS011;52544;48.116;11.660;2023-12-28T11:12:52;2.60;;;1.50;;
65799;SDS011;52544;48.116;11.660;2023-12-28T11:15:19;1.60;;;1.10;;
65799;SDS011;52544;48.116;11.660;2023-12-28T11:17:46;4.82;;;1.00;;
65799;SDS011;52544;48.116;11.660;2023-12-28T11:20:11;4.60;;;1.55;;
65799;SDS011;52544;48.116;11.660;2023-12-28T11:22:38;3.35;;;0.90;;
65799;SDS011;52544;48.116;11.660;2023-12-28T11:25:04;1.05;;;0.90;;
65799;SDS011;52544;48.116;11.660;2023-12-28T11:27:36;1.10;;;1.00;;
65799;SDS011;52544;48.116;11.660;2023-12-28T11:30:05;1.58;;;0.82;;
65799;SDS011;52544;48.116;11.660;2023-12-28T11:32:37;1.75;;;1.00;;
65799;SDS011;52544;48.116;11.660;2023-12-28T11:35:02;5.57;;;1.20;;
65799;SDS011;52544;48.116;11.660;2023-12-28T11:37:31;3.15;;;1.00;;
65799;SDS011;52544;48.116;11.660;2023-12-28T11:39:59;2.33;;;1.08;;
65799;SDS011;52544;48.116;11.660;2023-12-28T11:42:35;2.78;;;1.52;;
65799;SDS011;52544;48.116;11.660;2023-12-28T11:45:00;2.88;;;0.80;;
65799;SDS011;52544;48.116;11.660;2023-12-28T11:47:26;3.10;;;1.95;;
65799;SDS011;52544;48.116;11.660;2023-12-28T11:49:54;1.45;;;1.00;;
65799;SDS011;52544;48.116;11.660;2023-12-28T11:54:48;2.42;;;0.98;;
65799;SDS011;52544;48.116;11.660;2023-12-28T11:57:15;2.17;;;1.23;;
65799;SDS011;52544;48.116;11.660;2023-12-28T11:59:41;2.83;;;1.10;;
65799;SDS011;52544;48.116;11.660;2023-12-28T12:02:06;1.90;;;1.38;;
65799;SDS011;52544;48.116;11.660;2023-12-28T12:04:33;1.75;;;1.25;;
65799;SDS011;52544;48.116;11.660;2023-12-28T12:07:03;3.45;;;1.00;;
65799;SDS011;52544;48.116;11.660;2023-12-28T12:09:29;2.83;;;0.98;;
65799;SDS011;52544;48.116;11.660;2023-12-28T12:11:59;2.15;;;1.10;;
65799;SDS011;52544;48.116;11.660;2023-12-28T12:14:28;1.60;;;0.85;;
65799;SDS011;52544;48.116;11.660;2023-12-28T12:16:55;2.10;;;1.20;;
65799;SDS011;52544;48.116;11.660;2023-12-28T12:19:23;1.52;;;0.90;;
65799;SDS011;52544;48.116;11.660;2023-12-28T12:21:57;1.60;;;1.10;;
65799;SDS011;52544;48.116;11.660;2023-12-28T12:24:23;1.63;;;1.08;;
65799;SDS011;52544;48.116;11.660;2023-12-28T12:26:49;1.38;;;0.93;;
65799;SDS011;52544;48.116;11.660;2023-12-28T12:29:15;1.83;;;1.00;;
65799;SDS011;52544;48.116;11.660;2023-12-28T12:31:40;3.15;;;1.10;;
65799;SDS011;52544;48.116;11.660;2023-12-28T12:34:08;2.17;;;0.95;;
65799;SDS011;52544;48.116;11.660;2023-12-28T12:36:34;2.90;;;1.33;;
65799;SDS011;52544;48.116;11.660;2023-12-28T12:38:59;2.83;;;1.05;;
65799;SDS011;52544;48.116;11.660;2023-12-28T12:41:25;3.33;;;1.05;;
65799;SDS011;52544;48.116;11.660;2023-12-28T12:43:51;3.80;;;1.10;;
65799;SDS011;52544;48.116;11.660;2023-12-28T12:46:17;1.95;;;1.60;;
65799;SDS011;52544;48.116;11.660;2023-12-28T12:48:42;3.13;;;1.58;;
65799;SDS011;52544;48.116;11.660;2023-12-28T12:51:18;2.53;;;1.42;;
65799;SDS011;52544;48.116;11.660;2023-12-28T12:53:44;2.55;;;1.55;;
65799;SDS011;52544;48.116;11.660;2023-12-28T12:56:09;5.25;;;1.98;;
65799;SDS011;52544;48.116;11.660;2023-12-28T12:58:34;4.60;;;2.25;;
65799;SDS011;52544;48.116;11.660;2023-12-28T13:01:00;4.85;;;2.55;;
65799;SDS011;52544;48.116;11.660;2023-12-28T13:03:28;2.70;;;1.95;;
65799;SDS011;52544;48.116;11.660;2023-12-28T13:05:55;5.82;;;4.20;;
65799;SDS011;52544;48.116;11.660;2023-12-28T13:08:21;9.52;;;2.60;;
65799;SDS011;52544;48.116;11.660;2023-12-28T13:10:47;5.38;;;1.38;;
65799;SDS011;52544;48.116;11.660;2023-12-28T13:13:12;5.25;;;1.40;;
65799;SDS011;52544;48.116;11.660;2023-12-28T13:15:38;1.52;;;1.15;;
65799;SDS011;52544;48.116;11.660;2023-12-28T13:18:04;3.90;;;1.40;;
65799;SDS011;52544;48.116;11.660;2023-12-28T13:20:30;2.55;;;1.17;;
65799;SDS011;52544;48.116;11.660;2023-12-28T13:22:55;3.40;;;1.17;;
65799;SDS011;52544;48.116;11.660;2023-12-28T13:25:22;1.85;;;1.35;;
65799;SDS011;52544;48.116;11.660;2023-12-28T13:27:47;2.08;;;1.33;;
65799;SDS011;52544;48.116;11.660;2023-12-28T13:30:13;3.83;;;1.42;;
65799;SDS011;52544;48.116;11.660;2023-12-28T13:32:38;4.55;;;2.75;;
65799;SDS011;52544;48.116;11.660;2023-12-28T13:35:04;9.35;;;3.63;;
65799;SDS011;52544;48.116;11.660;2023-12-28T13:37:29;16.30;;;7.10;;
65799;SDS011;52544;48.116;11.660;2023-12-28T13:39:55;6.43;;;2.88;;
65799;SDS011;52544;48.116;11.660;2023-12-28T13:42:20;20.27;;;8.38;;
65799;SDS011;52544;48.116;11.660;2023-12-28T13:44:46;6.07;;;2.45;;
65799;SDS011;52544;48.116;11.660;2023-12-28T13:47:11;12.82;;;6.43;;
65799;SDS011;52544;48.116;11.660;2023-12-28T13:49:36;11.73;;;5.03;;
65799;SDS011;52544;48.116;11.660;2023-12-28T13:52:02;3.45;;;1.85;;
65799;SDS011;52544;48.116;11.660;2023-12-28T13:54:28;8.35;;;4.72;;
65799;SDS011;52544;48.116;11.660;2023-12-28T13:56:53;7.28;;;3.00;;
65799;SDS011;52544;48.116;11.660;2023-12-28T13:59:22;2.88;;;2.00;;
65799;SDS011;52544;48.116;11.660;2023-12-28T14:01:48;3.17;;;1.48;;
65799;SDS011;52544;48.116;11.660;2023-12-28T14:04:13;2.80;;;1.33;;
65799;SDS011;52544;48.116;11.660;2023-12-28T14:06:39;1.83;;;1.10;;
65799;SDS011;52544;48.116;11.660;2023-12-28T14:09:04;4.35;;;2.47;;
65799;SDS011;52544;48.116;11.660;2023-12-28T14:11:30;5.40;;;2.60;;
65799;SDS011;52544;48.116;11.660;2023-12-28T14:13:55;5.63;;;2.30;;
65799;SDS011;52544;48.116;11.660;2023-12-28T14:16:21;4.18;;;1.88;;
65799;SDS011;52544;48.116;11.660;2023-12-28T14:18:46;5.53;;;1.55;;
65799;SDS011;52544;48.116;11.660;2023-12-28T14:21:13;2.58;;;1.63;;
65799;SDS011;52544;48.116;11.660;2023-12-28T14:23:39;1.98;;;1.30;;
65799;SDS011;52544;48.116;11.660;2023-12-28T14:26:07;3.55;;;1.50;;
65799;SDS011;52544;48.116;11.660;2023-12-28T14:28:44;2.15;;;1.40;;
65799;SDS011;52544;48.116;11.660;2023-12-28T14:31:10;3.72;;;1.65;;
65799;SDS011;52544;48.116;11.660;2023-12-28T14:33:36;3.40;;;1.40;;
65799;SDS011;52544;48.116;11.660;2023-12-28T14:36:05;1.88;;;1.20;;
65799;SDS011;52544;48.116;11.660;2023-12-28T14:38:34;2.25;;;1.60;;